createdAt,value
2023-03-04T00:01:03.188Z,98.80
2023-03-04T00:03:31.778Z,98.80
2023-03-04T00:06:00.085Z,98.80
2023-03-04T00:08:28.788Z,98.70
2023-03-04T00:10:57.062Z,98.80
2023-03-04T00:13:25.821Z,98.70
2023-03-04T00:15:54.119Z,98.70
2023-03-04T00:18:22.723Z,98.60
2023-03-04T00:20:51.074Z,98.70
2023-03-04T00:23:19.802Z,98.70
2023-03-04T00:25:48.038Z,98.70
2023-03-04T00:28:16.913Z,98.70
2023-03-04T00:30:45.209Z,98.60
2023-03-04T00:33:13.798Z,98.60
2023-03-04T00:35:42.253Z,98.60
2023-03-04T00:38:11.001Z,98.60
2023-03-04T00:40:39.342Z,98.60
2023-03-04T00:43:07.909Z,98.60
2023-03-04T00:45:36.361Z,98.60
2023-03-04T00:48:05.179Z,98.60
2023-03-04T00:50:33.480Z,98.60
2023-03-04T00:53:02.268Z,98.60
2023-03-04T00:55:30.558Z,98.60
2023-03-04T00:57:59.170Z,98.50
2023-03-04T01:00:27.442Z,98.50
2023-03-04T01:02:56.160Z,98.50
2023-03-04T01:05:24.649Z,98.50
2023-03-04T01:07:53.434Z,98.40
2023-03-04T01:10:22.096Z,98.40
2023-03-04T01:12:50.929Z,98.40
2023-03-04T01:15:19.496Z,98.40
2023-03-04T01:17:48.458Z,98.30
2023-03-04T01:20:17.220Z,98.30
2023-03-04T01:22:45.982Z,98.40
2023-03-04T01:25:15.977Z,98.60
2023-03-04T01:27:44.686Z,98.30
2023-03-04T01:30:13.430Z,98.20
2023-03-04T01:32:42.146Z,98.10
2023-03-04T01:35:10.926Z,98.10
2023-03-04T01:37:39.588Z,98.20
2023-03-04T01:40:09.640Z,98.10
2023-03-04T01:42:40.100Z,98.00
2023-03-04T01:45:13.151Z,98.00
2023-03-04T01:47:44.277Z,97.90
2023-03-04T01:50:34.167Z,98.00
2023-03-04T01:53:03.561Z,98.00
2023-03-04T01:55:32.186Z,98.30
2023-03-04T01:58:01.054Z,98.20
2023-03-04T02:00:34.251Z,97.90
2023-03-04T02:03:15.549Z,98.00
2023-03-04T02:05:47.419Z,98.20
2023-03-04T02:08:16.828Z,98.30
2023-03-04T02:10:45.299Z,98.10
2023-03-04T02:13:14.319Z,98.10
2023-03-04T02:15:43.502Z,98.30
2023-03-04T02:18:23.644Z,98.00
2023-03-04T02:21:19.626Z,98.00
2023-03-04T02:24:37.566Z,98.10
2023-03-04T02:27:06.066Z,98.00
2023-03-04T02:29:35.057Z,98.20
2023-03-04T02:32:03.991Z,98.10
2023-03-04T02:34:35.294Z,98.30
2023-03-04T02:37:04.033Z,98.40
2023-03-04T02:39:46.714Z,98.20
2023-03-04T02:42:15.470Z,98.20
2023-03-04T02:44:47.781Z,98.00
2023-03-04T02:47:18.403Z,98.30
2023-03-04T02:49:47.772Z,98.20
2023-03-04T02:52:26.488Z,98.30
2023-03-04T02:54:55.224Z,98.20
2023-03-04T02:57:23.973Z,98.10
2023-03-04T02:59:56.173Z,97.90
2023-03-04T03:02:28.175Z,98.00
2023-03-04T03:04:57.016Z,97.80
2023-03-04T03:07:27.646Z,97.80
2023-03-04T03:09:56.724Z,97.80
2023-03-04T03:12:25.196Z,98.10
2023-03-04T03:14:54.178Z,98.10
2023-03-04T03:17:24.328Z,98.30
2023-03-04T03:19:53.005Z,98.20
2023-03-04T03:22:21.465Z,98.00
2023-03-04T03:24:50.321Z,98.00
2023-03-04T03:27:18.761Z,97.90
2023-03-04T03:29:47.795Z,97.70
2023-03-04T03:32:16.273Z,97.90
2023-03-04T03:34:44.960Z,98.00
2023-03-04T03:37:13.859Z,97.80
2023-03-04T03:39:42.590Z,97.80
2023-03-04T03:42:11.081Z,97.80
2023-03-04T03:44:39.730Z,97.90
2023-03-04T03:47:08.093Z,98.00
2023-03-04T03:49:36.848Z,97.80
2023-03-04T03:52:05.289Z,97.90
2023-03-04T03:54:34.085Z,98.20
2023-03-04T03:57:02.440Z,97.90
2023-03-04T03:59:31.224Z,97.90
2023-03-04T04:01:59.643Z,98.00
2023-03-04T04:04:28.420Z,98.00
2023-03-04T04:06:56.777Z,97.90
2023-03-04T04:09:25.516Z,97.80
2023-03-04T04:11:53.891Z,97.90
2023-03-04T04:14:22.672Z,97.70
2023-03-04T04:16:51.084Z,97.70
2023-03-04T04:19:20.311Z,97.60
2023-03-04T04:21:48.856Z,97.60
2023-03-04T04:24:17.710Z,97.70
2023-03-04T04:26:46.210Z,97.60
2023-03-04T04:29:15.216Z,97.50
2023-03-04T04:31:43.635Z,97.60
2023-03-04T04:34:12.284Z,97.60
2023-03-04T04:36:40.916Z,97.60
2023-03-04T04:39:09.547Z,97.60
2023-03-04T04:41:42.144Z,97.60
2023-03-04T04:44:11.409Z,97.50
2023-03-04T04:46:40.148Z,97.40
2023-03-04T04:49:09.259Z,97.40
2023-03-04T04:51:38.409Z,97.30
2023-03-04T04:54:07.248Z,97.30
2023-03-04T04:56:35.793Z,97.30
2023-03-04T04:59:05.799Z,97.20
2023-03-04T05:01:34.687Z,97.30
2023-03-04T05:04:03.479Z,97.30
2023-03-04T05:06:31.759Z,97.30
2023-03-04T05:09:00.389Z,97.50
2023-03-04T05:11:29.420Z,97.50
2023-03-04T05:13:58.042Z,97.50
2023-03-04T05:16:26.331Z,97.40
2023-03-04T05:18:54.943Z,97.40
2023-03-04T05:21:23.236Z,97.40
2023-03-04T05:23:52.414Z,97.20
2023-03-04T05:26:20.941Z,97.10
2023-03-04T05:28:49.563Z,97.00
2023-03-04T05:31:18.256Z,96.90
2023-03-04T05:33:46.933Z,96.70
2023-03-04T05:36:15.381Z,96.60
2023-03-04T05:38:44.016Z,96.40
2023-03-04T05:41:12.292Z,96.20
2023-03-04T05:43:43.105Z,96.10
2023-03-04T05:46:15.586Z,96.00
2023-03-04T05:48:45.012Z,95.90
2023-03-04T05:51:13.315Z,95.80
2023-03-04T05:53:41.875Z,95.60
2023-03-04T05:56:11.718Z,95.50
2023-03-04T05:58:40.384Z,95.40
2023-03-04T06:01:08.743Z,95.40
2023-03-04T06:03:37.955Z,95.30
2023-03-04T06:06:06.640Z,95.20
2023-03-04T06:08:35.276Z,95.00
2023-03-04T06:11:05.130Z,95.00
2023-03-04T06:13:34.880Z,94.70
2023-03-04T06:16:03.453Z,94.60
2023-03-04T06:18:32.050Z,94.40
2023-03-04T06:21:01.843Z,94.40
2023-03-04T06:23:30.935Z,94.40
2023-03-04T06:26:00.494Z,94.30
2023-03-04T06:28:29.471Z,94.20
2023-03-04T06:30:58.131Z,94.10
2023-03-04T06:33:27.100Z,94.10
2023-03-04T06:35:56.924Z,94.00
2023-03-04T06:38:26.393Z,93.90
2023-03-04T06:40:57.140Z,93.80
2023-03-04T06:43:26.382Z,93.80
2023-03-04T06:45:54.723Z,93.70
2023-03-04T06:48:23.426Z,93.70
2023-03-04T06:50:51.693Z,93.80
2023-03-04T06:53:20.393Z,93.80
2023-03-04T06:55:49.638Z,93.80
2023-03-04T06:58:18.223Z,93.90
2023-03-04T07:00:46.613Z,93.90
2023-03-04T07:03:15.442Z,94.00
2023-03-04T07:05:44.038Z,94.00
2023-03-04T07:08:12.707Z,94.00
2023-03-04T07:10:41.150Z,94.00
2023-03-04T07:13:09.996Z,94.10
2023-03-04T07:15:38.564Z,94.20
2023-03-04T07:18:07.292Z,94.20
2023-03-04T07:20:35.830Z,94.40
2023-03-04T07:23:04.530Z,94.80
2023-03-04T07:25:32.956Z,94.50
2023-03-04T07:28:01.575Z,94.60
2023-03-04T07:30:29.964Z,94.80
2023-03-04T07:32:58.919Z,94.90
2023-03-04T07:35:27.256Z,95.00
2023-03-04T07:37:55.953Z,95.00
2023-03-04T07:40:24.461Z,95.00
2023-03-04T07:42:54.335Z,95.00
2023-03-04T07:45:22.984Z,95.10
2023-03-04T07:47:52.120Z,95.10
2023-03-04T07:50:20.803Z,95.10
2023-03-04T07:52:52.518Z,95.20
2023-03-04T07:55:20.923Z,95.20
2023-03-04T07:57:49.642Z,95.20
2023-03-04T08:00:18.973Z,95.20
2023-03-04T08:02:47.728Z,95.30
2023-03-04T08:05:16.535Z,95.30
2023-03-04T08:07:45.085Z,95.30
2023-03-04T08:10:13.374Z,95.30
2023-03-04T08:12:42.012Z,95.70
2023-03-04T08:15:10.979Z,95.40
2023-03-04T08:17:39.665Z,95.40
2023-03-04T08:20:08.881Z,95.40
2023-03-04T08:22:37.512Z,95.40
2023-03-04T08:25:06.323Z,95.80
2023-03-04T08:27:34.987Z,95.40
2023-03-04T08:30:05.590Z,95.40
2023-03-04T08:32:34.736Z,95.40
2023-03-04T08:35:03.192Z,95.50
2023-03-04T08:37:31.852Z,95.50
2023-03-04T08:40:00.179Z,95.50
2023-03-04T08:42:28.874Z,95.60
2023-03-04T08:44:57.158Z,95.60
2023-03-04T08:47:25.804Z,95.60
2023-03-04T08:49:54.391Z,94.90
2023-03-04T08:52:23.471Z,95.10
2023-03-04T08:54:51.865Z,95.30
2023-03-04T08:57:20.546Z,95.00
2023-03-04T08:59:48.793Z,95.20
2023-03-04T09:02:17.502Z,94.70
2023-03-04T09:04:45.899Z,94.60
2023-03-04T09:07:14.641Z,94.20
2023-03-04T09:09:43.065Z,94.50
2023-03-04T09:12:11.830Z,93.60
2023-03-04T09:14:40.267Z,93.20
2023-03-04T09:17:10.399Z,93.40
2023-03-04T09:19:38.982Z,93.90
2023-03-04T09:22:07.702Z,94.10
2023-03-04T09:24:36.071Z,94.10
2023-03-04T09:27:04.846Z,94.80
2023-03-04T09:29:33.406Z,94.60
2023-03-04T09:32:02.119Z,94.50
2023-03-04T09:34:30.504Z,94.30
2023-03-04T09:36:59.256Z,94.20
2023-03-04T09:39:27.952Z,94.10
2023-03-04T09:41:58.435Z,94.10
2023-03-04T09:44:41.445Z,94.10
2023-03-04T09:47:15.925Z,94.10
2023-03-04T09:50:01.118Z,94.10
2023-03-04T09:52:52.925Z,94.10
2023-03-04T09:55:34.272Z,94.10
2023-03-04T09:58:13.882Z,94.20
2023-03-04T10:00:52.647Z,94.20
2023-03-04T10:03:25.725Z,94.20
2023-03-04T10:06:06.825Z,94.20
2023-03-04T10:08:47.413Z,94.20
2023-03-04T10:11:24.959Z,94.10
2023-03-04T10:14:10.897Z,94.10
2023-03-04T10:17:21.791Z,93.90
2023-03-04T10:20:01.929Z,93.90
2023-03-04T10:22:37.740Z,93.80
2023-03-04T10:25:28.371Z,93.60
2023-03-04T10:28:16.778Z,93.40
2023-03-04T10:31:06.333Z,93.20
2023-03-04T10:33:39.812Z,93.00
2023-03-04T10:36:31.361Z,92.80
2023-03-04T10:39:13.432Z,92.70
2023-03-04T10:41:54.231Z,92.60
2023-03-04T10:44:23.268Z,92.40
2023-03-04T10:46:54.782Z,92.30
2023-03-04T10:49:24.994Z,92.20
2023-03-04T10:52:15.809Z,92.00
2023-03-04T10:54:53.906Z,91.90
2023-03-04T10:57:43.891Z,91.90
2023-03-04T11:00:17.852Z,91.80
2023-03-04T11:02:47.419Z,91.70
2023-03-04T11:05:16.639Z,91.70
2023-03-04T11:07:55.212Z,91.60
2023-03-04T11:10:37.051Z,91.60
2023-03-04T11:13:23.711Z,91.60
2023-03-04T11:15:58.111Z,91.60
2023-03-04T11:18:44.946Z,91.60
2023-03-04T11:21:26.193Z,91.40
2023-03-04T11:23:59.372Z,91.40
2023-03-04T11:26:34.336Z,92.30
2023-03-04T11:29:16.645Z,92.20
2023-03-04T11:32:03.784Z,92.00
2023-03-04T11:34:50.477Z,91.10
2023-03-04T11:38:06.263Z,91.10
2023-03-04T11:40:38.976Z,91.40
2023-03-04T11:43:18.493Z,90.90
2023-03-04T11:46:24.885Z,90.60
2023-03-04T11:49:21.085Z,90.60
2023-03-04T11:52:20.387Z,90.20
2023-03-04T11:55:46.008Z,90.10
2023-03-04T11:58:51.439Z,89.10
2023-03-04T12:01:32.172Z,89.00
2023-03-04T12:04:16.495Z,88.80
2023-03-04T12:07:01.627Z,88.80
2023-03-04T12:09:40.269Z,89.00
2023-03-04T12:12:51.910Z,88.50
2023-03-04T12:15:55.429Z,88.20
2023-03-04T12:19:08.168Z,88.10
2023-03-04T12:22:06.644Z,88.10
2023-03-04T12:25:08.579Z,89.00
2023-03-04T12:27:58.802Z,89.40
2023-03-04T12:31:05.055Z,89.10
2023-03-04T12:33:53.228Z,88.60
2023-03-04T12:36:30.662Z,88.40
2023-03-04T12:39:13.521Z,88.50
2023-03-04T12:42:17.187Z,88.50
2023-03-04T12:45:18.671Z,87.90
2023-03-04T12:48:28.667Z,87.60
2023-03-04T12:51:18.168Z,86.40
2023-03-04T12:54:26.261Z,86.80
2023-03-04T12:57:03.166Z,86.60
2023-03-04T12:59:50.839Z,86.70
2023-03-04T13:02:37.662Z,86.60
2023-03-04T13:05:46.480Z,87.00
2023-03-04T13:08:46.178Z,86.80
2023-03-04T13:11:26.480Z,86.70
2023-03-04T13:14:17.527Z,86.90
2023-03-04T13:16:49.618Z,86.80
2023-03-04T13:19:57.082Z,86.80
2023-03-04T13:22:50.473Z,87.10
2023-03-04T13:25:46.263Z,87.00
2023-03-04T13:28:22.532Z,87.30
2023-03-04T13:30:59.656Z,87.90
2023-03-04T13:33:27.907Z,88.20
2023-03-04T13:36:26.202Z,88.20
2023-03-04T13:39:18.502Z,88.40
2023-03-04T13:41:54.247Z,88.80
2023-03-04T13:44:57.144Z,89.30
2023-03-04T13:47:42.613Z,89.60
2023-03-04T13:50:48.381Z,89.90
2023-03-04T13:53:41.079Z,90.10
2023-03-04T13:56:12.942Z,90.20
2023-03-04T13:58:41.567Z,90.30
2023-03-04T14:01:32.247Z,90.30
2023-03-04T14:04:01.886Z,90.30
2023-03-04T14:06:31.919Z,90.30
2023-03-04T14:09:00.746Z,90.40
2023-03-04T14:11:42.131Z,90.40
2023-03-04T14:14:17.188Z,90.40
2023-03-04T14:16:55.000Z,90.60
2023-03-04T14:19:38.666Z,90.60
2023-03-04T14:22:28.488Z,90.70
2023-03-04T14:25:22.679Z,90.70
2023-03-04T14:27:51.198Z,90.70
2023-03-04T14:30:41.578Z,90.60
2023-03-04T14:33:18.137Z,90.60
2023-03-04T14:35:52.001Z,90.60
2023-03-04T14:38:35.689Z,90.60
2023-03-04T14:41:26.031Z,90.60
2023-03-04T14:44:05.569Z,90.50
2023-03-04T14:46:49.309Z,90.50
2023-03-04T14:49:25.586Z,90.60
2023-03-04T14:51:55.483Z,90.70
2023-03-04T14:54:39.254Z,90.70
2023-03-04T14:57:22.555Z,90.70
2023-03-04T14:59:51.670Z,90.70
2023-03-04T15:02:41.833Z,90.70
2023-03-04T15:05:17.501Z,90.80
2023-03-04T15:07:52.755Z,90.80
2023-03-04T15:10:27.973Z,90.90
2023-03-04T15:13:01.455Z,91.00
2023-03-04T15:15:46.583Z,90.90
2023-03-04T15:18:26.621Z,90.90
2023-03-04T15:20:59.714Z,90.90
2023-03-04T15:23:30.295Z,90.90
2023-03-04T15:26:04.022Z,90.80
2023-03-04T15:28:38.010Z,90.80
2023-03-04T15:31:06.874Z,90.90
2023-03-04T15:33:35.959Z,90.90
2023-03-04T15:36:04.698Z,90.90
2023-03-04T15:38:33.452Z,90.80
2023-03-04T15:41:02.206Z,90.90
2023-03-04T15:43:30.945Z,90.90
2023-03-04T15:45:59.501Z,90.90
2023-03-04T15:48:28.452Z,90.90
2023-03-04T15:51:03.652Z,90.80
2023-03-04T15:53:44.976Z,90.90
2023-03-04T15:56:17.166Z,90.90
2023-03-04T15:58:48.518Z,90.90
2023-03-04T16:01:17.680Z,90.80
2023-03-04T16:03:46.395Z,90.80
2023-03-04T16:06:15.942Z,90.90
2023-03-04T16:08:44.837Z,90.90
2023-03-04T16:11:19.246Z,90.90
2023-03-04T16:13:48.233Z,91.10
2023-03-04T16:16:16.814Z,91.00
2023-03-04T16:18:45.620Z,91.40
2023-03-04T16:21:19.022Z,91.40
2023-03-04T16:23:49.320Z,91.70
2023-03-04T16:26:25.135Z,91.80
2023-03-04T16:28:54.187Z,91.90
2023-03-04T16:31:22.782Z,92.10
2023-03-04T16:33:51.837Z,92.10
2023-03-04T16:36:29.057Z,92.20
2023-03-04T16:38:59.920Z,92.30
2023-03-04T16:41:30.913Z,92.30
2023-03-04T16:44:00.685Z,92.50
2023-03-04T16:46:30.329Z,92.60
2023-03-04T16:48:59.088Z,92.60
2023-03-04T16:51:27.450Z,92.70
2023-03-04T16:53:58.068Z,92.90
2023-03-04T16:56:26.595Z,93.00
2023-03-04T16:58:55.222Z,93.00
2023-03-04T17:01:28.815Z,93.10
2023-03-04T17:03:57.887Z,93.20
2023-03-04T17:06:26.225Z,93.20
2023-03-04T17:08:54.805Z,93.30
2023-03-04T17:11:23.869Z,93.40
2023-03-04T17:13:52.721Z,93.40
2023-03-04T17:16:21.168Z,93.60
2023-03-04T17:18:50.005Z,93.70
2023-03-04T17:21:21.609Z,93.70
2023-03-04T17:23:50.446Z,93.80
2023-03-04T17:26:23.172Z,93.80
2023-03-04T17:28:51.870Z,93.80
2023-03-04T17:31:20.604Z,94.00
2023-03-04T17:33:49.610Z,94.00
2023-03-04T17:36:18.879Z,94.40
2023-03-04T17:38:49.614Z,94.10
2023-03-04T17:41:18.951Z,94.10
2023-03-04T17:43:49.836Z,94.20
2023-03-04T17:46:20.732Z,94.10
2023-03-04T17:48:49.858Z,94.10
2023-03-04T17:51:19.015Z,94.00
2023-03-04T17:53:47.836Z,94.00
2023-03-04T17:56:16.188Z,93.90
2023-03-04T17:58:44.785Z,93.80
2023-03-04T18:01:19.479Z,93.70
2023-03-04T18:03:48.744Z,93.60
2023-03-04T18:06:17.425Z,93.50
2023-03-04T18:08:46.840Z,93.40
2023-03-04T18:11:15.308Z,93.30
2023-03-04T18:13:44.552Z,93.10
2023-03-04T18:16:15.194Z,92.90
2023-03-04T18:18:44.016Z,92.90
2023-03-04T18:21:13.980Z,92.80
2023-03-04T18:23:42.712Z,92.80
2023-03-04T18:26:11.332Z,92.70
2023-03-04T18:28:40.467Z,92.60
2023-03-04T18:31:10.580Z,92.60
2023-03-04T18:33:40.005Z,92.80
2023-03-04T18:36:09.798Z,92.80
2023-03-04T18:38:38.668Z,92.90
2023-03-04T18:41:09.391Z,93.00
2023-03-04T18:43:38.278Z,93.10
2023-03-04T18:46:18.547Z,93.30
2023-03-04T18:49:00.350Z,93.40
2023-03-04T18:51:28.796Z,93.40
2023-03-04T18:53:57.945Z,93.50
2023-03-04T18:56:48.244Z,93.60
2023-03-04T18:59:26.918Z,93.70
2023-03-04T19:01:55.313Z,93.70
2023-03-04T19:04:23.964Z,93.80
2023-03-04T19:06:52.943Z,93.80
2023-03-04T19:09:21.898Z,93.90
2023-03-04T19:11:50.365Z,94.30
2023-03-04T19:14:19.282Z,94.00
2023-03-04T19:16:48.779Z,94.10
2023-03-04T19:19:17.732Z,94.20
2023-03-04T19:21:46.166Z,94.30
2023-03-04T19:24:15.122Z,94.30
2023-03-04T19:26:43.740Z,94.30
2023-03-04T19:29:12.699Z,94.40
2023-03-04T19:31:41.582Z,94.50
2023-03-04T19:34:10.605Z,94.50
2023-03-04T19:36:39.234Z,94.50
2023-03-04T19:39:09.664Z,94.60
2023-03-04T19:41:38.063Z,94.60
2023-03-04T19:44:06.839Z,94.70
2023-03-04T19:46:35.190Z,94.80
2023-03-04T19:49:05.225Z,94.80
2023-03-04T19:51:34.120Z,94.80
2023-03-04T19:54:02.982Z,94.80
2023-03-04T19:56:31.397Z,94.90
2023-03-04T19:59:00.245Z,95.00
2023-03-04T20:01:30.884Z,94.90
2023-03-04T20:04:02.458Z,95.10
2023-03-04T20:06:31.112Z,95.10
2023-03-04T20:09:00.979Z,95.10
2023-03-04T20:11:29.903Z,95.10
2023-03-04T20:14:00.329Z,95.20
2023-03-04T20:16:29.071Z,95.20
2023-03-04T20:19:00.772Z,95.20
2023-03-04T20:21:58.311Z,95.20
2023-03-04T20:24:27.248Z,95.20
2023-03-04T20:26:55.952Z,95.20
2023-03-04T20:29:27.246Z,95.30
2023-03-04T20:31:55.686Z,95.30
2023-03-04T20:34:25.612Z,95.30
2023-03-04T20:36:53.941Z,95.30
2023-03-04T20:39:29.041Z,95.30
2023-03-04T20:41:58.419Z,95.20
2023-03-04T20:44:27.566Z,95.10
2023-03-04T20:46:56.047Z,95.00
2023-03-04T20:49:26.984Z,94.90
2023-03-04T20:52:00.417Z,94.90
2023-03-04T20:54:30.359Z,94.70
2023-03-04T20:56:58.889Z,94.60
2023-03-04T20:59:27.960Z,94.50
2023-03-04T21:01:56.834Z,94.40
2023-03-04T21:04:25.580Z,94.20
2023-03-04T21:06:54.117Z,94.10
2023-03-04T21:09:23.427Z,94.00
2023-03-04T21:11:52.277Z,93.90
2023-03-04T21:14:26.606Z,93.90
2023-03-04T21:16:58.024Z,93.80
2023-03-04T21:19:32.839Z,93.80
2023-03-04T21:22:01.697Z,93.80
2023-03-04T21:24:33.314Z,93.70
2023-03-04T21:27:02.185Z,93.70
2023-03-04T21:29:31.042Z,93.70
2023-03-04T21:32:20.865Z,93.70
2023-03-04T21:34:52.528Z,93.70
2023-03-04T21:37:22.358Z,93.70
2023-03-04T21:39:51.280Z,93.70
2023-03-04T21:42:20.153Z,93.70
2023-03-04T21:44:50.724Z,93.70
2023-03-04T21:47:21.063Z,93.70
2023-03-04T21:49:50.007Z,93.70
2023-03-04T21:52:19.815Z,93.70
2023-03-04T21:54:48.824Z,93.80
2023-03-04T21:57:17.597Z,93.80
2023-03-04T21:59:46.608Z,93.80
2023-03-04T22:02:17.288Z,93.80
2023-03-04T22:04:46.020Z,93.80
2023-03-04T22:07:14.445Z,93.80
2023-03-04T22:09:43.168Z,93.80
2023-03-04T22:12:11.544Z,93.90
2023-03-04T22:14:40.211Z,93.80
2023-03-04T22:17:08.753Z,93.90
2023-03-04T22:19:37.540Z,93.90
2023-03-04T22:22:06.619Z,93.90
2023-03-04T22:24:35.801Z,93.90
2023-03-04T22:27:04.523Z,93.90
2023-03-04T22:29:33.173Z,93.90
2023-03-04T22:32:01.652Z,93.90
2023-03-04T22:34:30.645Z,93.90
2023-03-04T22:36:58.973Z,93.90
2023-03-04T22:39:27.631Z,93.90
2023-03-04T22:41:56.055Z,94.00
2023-03-04T22:44:24.915Z,94.00
2023-03-04T22:46:53.210Z,93.90
2023-03-04T22:49:21.832Z,93.90
2023-03-04T22:51:50.185Z,93.90
2023-03-04T22:54:19.242Z,94.00
2023-03-04T22:56:47.540Z,94.00
2023-03-04T22:59:16.196Z,94.00
2023-03-04T23:01:44.618Z,94.00
2023-03-04T23:04:13.222Z,94.00
2023-03-04T23:06:41.664Z,94.00
2023-03-04T23:09:10.350Z,94.00
2023-03-04T23:11:39.660Z,94.00
2023-03-04T23:14:08.716Z,94.00
2023-03-04T23:16:41.252Z,94.00
2023-03-04T23:19:15.062Z,94.10
2023-03-04T23:21:43.652Z,94.10
2023-03-04T23:24:12.706Z,94.00
2023-03-04T23:26:41.598Z,94.10
2023-03-04T23:29:12.486Z,94.10
2023-03-04T23:31:40.822Z,94.10
2023-03-04T23:34:09.605Z,94.10
2023-03-04T23:36:38.217Z,94.10
2023-03-04T23:39:07.402Z,94.20
2023-03-04T23:41:35.875Z,94.20
2023-03-04T23:44:05.096Z,94.20
2023-03-04T23:46:33.514Z,94.50
2023-03-04T23:49:02.105Z,94.20
2023-03-04T23:51:31.220Z,94.20
2023-03-04T23:53:59.980Z,94.20
2023-03-04T23:56:30.509Z,94.20
2023-03-04T23:59:00.012Z,94.20
